sensor_id;sensor_type;location;lat;lon;timestamp;temperature;humidity
45435;DHT22;31183;47.404;8.500;2023-03-01T00:01:20;1.50;87.20
45435;DHT22;31183;47.404;8.500;2023-03-01T00:03:47;1.50;86.90
45435;DHT22;31183;47.404;8.500;2023-03-01T00:06:14;1.60;87.00
45435;DHT22;31183;47.404;8.500;2023-03-01T00:08:41;1.60;86.70
45435;DHT22;31183;47.404;8.500;2023-03-01T00:13:44;1.60;86.50
45435;DHT22;31183;47.404;8.500;2023-03-01T00:16:14;1.60;87.00
45435;DHT22;31183;47.404;8.500;2023-03-01T00:18:41;1.60;86.90
45435;DHT22;31183;47.404;8.500;2023-03-01T00:21:07;1.70;86.80
45435;DHT22;31183;47.404;8.500;2023-03-01T00:23:35;1.60;86.30
45435;DHT22;31183;47.404;8.500;2023-03-01T00:26:05;1.60;86.30
45435;DHT22;31183;47.404;8.500;2023-03-01T00:28:32;1.60;87.00
45435;DHT22;31183;47.404;8.500;2023-03-01T00:31:20;1.60;86.90
45435;DHT22;31183;47.404;8.500;2023-03-01T00:33:47;1.60;86.50
45435;DHT22;31183;47.404;8.500;2023-03-01T00:36:15;1.70;86.70
45435;DHT22;31183;47.404;8.500;2023-03-01T00:38:44;1.70;86.80
45435;DHT22;31183;47.404;8.500;2023-03-01T00:41:14;1.70;86.60
45435;DHT22;31183;47.404;8.500;2023-03-01T00:43:42;1.70;86.90
45435;DHT22;31183;47.404;8.500;2023-03-01T00:46:11;1.80;86.50
45435;DHT22;31183;47.404;8.500;2023-03-01T00:48:39;1.70;86.20
45435;DHT22;31183;47.404;8.500;2023-03-01T00:51:17;1.70;86.40
45435;DHT22;31183;47.404;8.500;2023-03-01T00:53:44;1.70;86.60
45435;DHT22;31183;47.404;8.500;2023-03-01T00:56:12;1.70;86.50
45435;DHT22;31183;47.404;8.500;2023-03-01T00:58:40;1.70;86.80
45435;DHT22;31183;47.404;8.500;2023-03-01T01:06:20;1.70;86.90
45435;DHT22;31183;47.404;8.500;2023-03-01T01:08:48;1.70;86.60
45435;DHT22;31183;47.404;8.500;2023-03-01T01:11:16;1.70;87.00
45435;DHT22;31183;47.404;8.500;2023-03-01T01:13:44;1.70;86.60
45435;DHT22;31183;47.404;8.500;2023-03-01T01:16:11;1.70;86.90
45435;DHT22;31183;47.404;8.500;2023-03-01T01:18:38;1.70;86.90
45435;DHT22;31183;47.404;8.500;2023-03-01T01:21:14;1.70;87.00
45435;DHT22;31183;47.404;8.500;2023-03-01T01:23:41;1.70;87.00
45435;DHT22;31183;47.404;8.500;2023-03-01T01:26:20;1.70;87.20
45435;DHT22;31183;47.404;8.500;2023-03-01T01:28:48;1.70;86.90
45435;DHT22;31183;47.404;8.500;2023-03-01T01:31:15;1.60;87.00
45435;DHT22;31183;47.404;8.500;2023-03-01T01:33:42;1.60;87.30
45435;DHT22;31183;47.404;8.500;2023-03-01T01:36:09;1.60;86.90
45435;DHT22;31183;47.404;8.500;2023-03-01T01:38:37;1.60;87.30
45435;DHT22;31183;47.404;8.500;2023-03-01T01:41:04;1.60;87.20
45435;DHT22;31183;47.404;8.500;2023-03-01T01:43:35;1.60;87.50
45435;DHT22;31183;47.404;8.500;2023-03-01T01:46:21;1.60;87.30
45435;DHT22;31183;47.404;8.500;2023-03-01T01:48:54;1.60;87.20
45435;DHT22;31183;47.404;8.500;2023-03-01T01:51:25;1.60;87.30
45435;DHT22;31183;47.404;8.500;2023-03-01T01:53:58;1.70;87.40
45435;DHT22;31183;47.404;8.500;2023-03-01T01:56:26;1.70;87.10
45435;DHT22;31183;47.404;8.500;2023-03-01T01:58:55;1.70;87.30
45435;DHT22;31183;47.404;8.500;2023-03-01T02:01:22;1.70;87.50
45435;DHT22;31183;47.404;8.500;2023-03-01T02:03:49;1.70;87.70
45435;DHT22;31183;47.404;8.500;2023-03-01T02:06:21;1.70;87.50
45435;DHT22;31183;47.404;8.500;2023-03-01T02:08:50;1.70;87.30
45435;DHT22;31183;47.404;8.500;2023-03-01T02:11:18;1.70;87.50
45435;DHT22;31183;47.404;8.500;2023-03-01T02:13:47;1.70;87.40
45435;DHT22;31183;47.404;8.500;2023-03-01T02:16:15;1.70;87.60
45435;DHT22;31183;47.404;8.500;2023-03-01T02:18:43;1.80;87.60
45435;DHT22;31183;47.404;8.500;2023-03-01T02:23:45;1.70;87.10
45435;DHT22;31183;47.404;8.500;2023-03-01T02:26:28;1.70;87.40
45435;DHT22;31183;47.404;8.500;2023-03-01T02:28:58;1.70;87.30
45435;DHT22;31183;47.404;8.500;2023-03-01T02:31:25;1.70;87.10
45435;DHT22;31183;47.404;8.500;2023-03-01T02:34:15;1.70;88.00
45435;DHT22;31183;47.404;8.500;2023-03-01T02:36:56;1.70;87.00
45435;DHT22;31183;47.404;8.500;2023-03-01T02:39:32;1.70;86.90
45435;DHT22;31183;47.404;8.500;2023-03-01T02:42:01;1.70;87.00
45435;DHT22;31183;47.404;8.500;2023-03-01T02:44:29;1.70;87.40
45435;DHT22;31183;47.404;8.500;2023-03-01T02:46:56;1.70;87.20
45435;DHT22;31183;47.404;8.500;2023-03-01T02:49:29;1.70;87.20
45435;DHT22;31183;47.404;8.500;2023-03-01T02:54:49;1.80;87.20
45435;DHT22;31183;47.404;8.500;2023-03-01T02:57:18;1.70;87.00
45435;DHT22;31183;47.404;8.500;2023-03-01T02:59:45;1.70;87.10
45435;DHT22;31183;47.404;8.500;2023-03-01T03:02:26;1.70;87.40
45435;DHT22;31183;47.404;8.500;2023-03-01T03:05:11;1.60;87.40
45435;DHT22;31183;47.404;8.500;2023-03-01T03:07:41;1.70;87.50
45435;DHT22;31183;47.404;8.500;2023-03-01T03:10:32;1.70;87.20
45435;DHT22;31183;47.404;8.500;2023-03-01T03:13:04;1.70;87.30
45435;DHT22;31183;47.404;8.500;2023-03-01T03:15:32;1.80;87.70
45435;DHT22;31183;47.404;8.500;2023-03-01T03:18:05;1.80;87.30
45435;DHT22;31183;47.404;8.500;2023-03-01T03:20:33;1.80;87.40
45435;DHT22;31183;47.404;8.500;2023-03-01T03:22:59;1.80;87.60
45435;DHT22;31183;47.404;8.500;2023-03-01T03:25:27;1.80;87.80
45435;DHT22;31183;47.404;8.500;2023-03-01T03:27:55;1.90;87.30
45435;DHT22;31183;47.404;8.500;2023-03-01T03:30:27;1.80;87.30
45435;DHT22;31183;47.404;8.500;2023-03-01T03:32:55;1.90;87.00
45435;DHT22;31183;47.404;8.500;2023-03-01T03:35:27;1.90;87.20
45435;DHT22;31183;47.404;8.500;2023-03-01T03:37:58;1.80;87.20
45435;DHT22;31183;47.404;8.500;2023-03-01T03:42:58;1.80;87.40
45435;DHT22;31183;47.404;8.500;2023-03-01T03:45:25;1.90;87.20
45435;DHT22;31183;47.404;8.500;2023-03-01T03:47:52;1.90;87.30
45435;DHT22;31183;47.404;8.500;2023-03-01T03:50:19;1.90;87.30
45435;DHT22;31183;47.404;8.500;2023-03-01T03:52:45;1.90;87.20
45435;DHT22;31183;47.404;8.500;2023-03-01T03:55:12;1.90;87.30
45435;DHT22;31183;47.404;8.500;2023-03-01T03:57:40;1.80;87.40
45435;DHT22;31183;47.404;8.500;2023-03-01T04:00:11;1.90;87.30
45435;DHT22;31183;47.404;8.500;2023-03-01T04:02:45;1.90;87.50
45435;DHT22;31183;47.404;8.500;2023-03-01T04:05:12;1.90;88.00
45435;DHT22;31183;47.404;8.500;2023-03-01T04:07:41;2.00;87.30
45435;DHT22;31183;47.404;8.500;2023-03-01T04:10:11;2.00;87.30
45435;DHT22;31183;47.404;8.500;2023-03-01T04:12:38;2.00;87.00
45435;DHT22;31183;47.404;8.500;2023-03-01T04:15:07;1.90;87.20
45435;DHT22;31183;47.404;8.500;2023-03-01T04:17:43;1.90;87.30
45435;DHT22;31183;47.404;8.500;2023-03-01T04:20:14;1.90;87.30
45435;DHT22;31183;47.404;8.500;2023-03-01T04:22:44;1.90;87.50
45435;DHT22;31183;47.404;8.500;2023-03-01T04:25:14;1.90;87.60
45435;DHT22;31183;47.404;8.500;2023-03-01T04:27:40;1.90;87.40
45435;DHT22;31183;47.404;8.500;2023-03-01T04:30:08;1.90;87.90
45435;DHT22;31183;47.404;8.500;2023-03-01T04:32:35;1.90;87.40
45435;DHT22;31183;47.404;8.500;2023-03-01T04:35:02;1.90;87.60
45435;DHT22;31183;47.404;8.500;2023-03-01T04:37:28;1.90;87.70
45435;DHT22;31183;47.404;8.500;2023-03-01T04:39:56;1.80;87.70
45435;DHT22;31183;47.404;8.500;2023-03-01T04:42:23;1.80;87.90
45435;DHT22;31183;47.404;8.500;2023-03-01T04:44:49;1.80;87.50
45435;DHT22;31183;47.404;8.500;2023-03-01T04:47:17;1.80;87.90
45435;DHT22;31183;47.404;8.500;2023-03-01T04:49:44;1.80;88.10
45435;DHT22;31183;47.404;8.500;2023-03-01T04:52:10;1.80;88.10
45435;DHT22;31183;47.404;8.500;2023-03-01T04:54:37;1.80;88.00
45435;DHT22;31183;47.404;8.500;2023-03-01T04:57:04;1.80;88.00
45435;DHT22;31183;47.404;8.500;2023-03-01T04:59:30;1.80;88.10
45435;DHT22;31183;47.404;8.500;2023-03-01T05:01:57;1.70;88.50
45435;DHT22;31183;47.404;8.500;2023-03-01T05:04:24;1.80;88.90
45435;DHT22;31183;47.404;8.500;2023-03-01T05:06:51;1.80;88.40
45435;DHT22;31183;47.404;8.500;2023-03-01T05:09:19;1.80;88.20
45435;DHT22;31183;47.404;8.500;2023-03-01T05:11:46;1.90;88.30
45435;DHT22;31183;47.404;8.500;2023-03-01T05:14:13;1.90;88.40
45435;DHT22;31183;47.404;8.500;2023-03-01T05:16:39;1.90;88.10
45435;DHT22;31183;47.404;8.500;2023-03-01T05:19:06;1.90;88.40
45435;DHT22;31183;47.404;8.500;2023-03-01T05:21:42;1.90;88.20
45435;DHT22;31183;47.404;8.500;2023-03-01T05:24:29;1.90;88.50
45435;DHT22;31183;47.404;8.500;2023-03-01T05:26:55;1.90;88.20
45435;DHT22;31183;47.404;8.500;2023-03-01T05:29:24;1.90;88.30
45435;DHT22;31183;47.404;8.500;2023-03-01T05:31:56;1.80;88.30
45435;DHT22;31183;47.404;8.500;2023-03-01T05:34:26;1.80;88.60
45435;DHT22;31183;47.404;8.500;2023-03-01T05:36:53;1.80;88.80
45435;DHT22;31183;47.404;8.500;2023-03-01T05:39:22;1.80;89.00
45435;DHT22;31183;47.404;8.500;2023-03-01T05:41:52;1.80;88.70
45435;DHT22;31183;47.404;8.500;2023-03-01T05:44:19;1.80;89.40
45435;DHT22;31183;47.404;8.500;2023-03-01T05:46:46;1.80;89.40
45435;DHT22;31183;47.404;8.500;2023-03-01T05:49:13;1.80;89.30
45435;DHT22;31183;47.404;8.500;2023-03-01T05:51:41;1.80;89.10
45435;DHT22;31183;47.404;8.500;2023-03-01T05:54:08;1.70;89.30
45435;DHT22;31183;47.404;8.500;2023-03-01T05:56:36;1.70;89.70
45435;DHT22;31183;47.404;8.500;2023-03-01T05:59:04;1.70;89.70
45435;DHT22;31183;47.404;8.500;2023-03-01T06:01:35;1.70;89.80
45435;DHT22;31183;47.404;8.500;2023-03-01T06:04:03;1.70;90.00
45435;DHT22;31183;47.404;8.500;2023-03-01T06:06:34;1.70;89.90
45435;DHT22;31183;47.404;8.500;2023-03-01T06:09:00;1.80;89.90
45435;DHT22;31183;47.404;8.500;2023-03-01T06:11:27;1.80;90.00
45435;DHT22;31183;47.404;8.500;2023-03-01T06:13:54;1.80;89.80
45435;DHT22;31183;47.404;8.500;2023-03-01T06:16:20;1.80;90.00
45435;DHT22;31183;47.404;8.500;2023-03-01T06:18:47;1.80;89.80
45435;DHT22;31183;47.404;8.500;2023-03-01T06:21:13;1.80;89.60
45435;DHT22;31183;47.404;8.500;2023-03-01T06:23:40;1.80;89.80
45435;DHT22;31183;47.404;8.500;2023-03-01T06:26:08;1.80;89.70
45435;DHT22;31183;47.404;8.500;2023-03-01T06:28:35;1.80;89.80
45435;DHT22;31183;47.404;8.500;2023-03-01T06:31:02;1.80;90.00
45435;DHT22;31183;47.404;8.500;2023-03-01T06:33:29;1.70;89.60
45435;DHT22;31183;47.404;8.500;2023-03-01T06:35:55;1.60;90.10
45435;DHT22;31183;47.404;8.500;2023-03-01T06:38:23;1.70;90.30
45435;DHT22;31183;47.404;8.500;2023-03-01T06:40:54;1.60;90.20
45435;DHT22;31183;47.404;8.500;2023-03-01T06:43:21;1.70;90.20
45435;DHT22;31183;47.404;8.500;2023-03-01T06:45:48;1.70;90.20
45435;DHT22;31183;47.404;8.500;2023-03-01T06:48:14;1.70;90.30
45435;DHT22;31183;47.404;8.500;2023-03-01T06:50:41;1.80;90.20
45435;DHT22;31183;47.404;8.500;2023-03-01T06:53:07;1.80;90.20
45435;DHT22;31183;47.404;8.500;2023-03-01T06:55:34;1.80;90.00
45435;DHT22;31183;47.404;8.500;2023-03-01T06:58:02;1.80;90.10
45435;DHT22;31183;47.404;8.500;2023-03-01T07:00:29;1.80;90.10
45435;DHT22;31183;47.404;8.500;2023-03-01T07:02:59;1.90;90.20
45435;DHT22;31183;47.404;8.500;2023-03-01T07:05:26;1.90;90.20
45435;DHT22;31183;47.404;8.500;2023-03-01T07:07:53;1.90;90.20
45435;DHT22;31183;47.404;8.500;2023-03-01T07:10:20;1.80;90.20
45435;DHT22;31183;47.404;8.500;2023-03-01T07:12:47;1.80;90.20
45435;DHT22;31183;47.404;8.500;2023-03-01T07:15:14;1.90;90.50
45435;DHT22;31183;47.404;8.500;2023-03-01T07:17:41;1.90;90.30
45435;DHT22;31183;47.404;8.500;2023-03-01T07:20:09;1.90;90.30
45435;DHT22;31183;47.404;8.500;2023-03-01T07:22:35;1.90;90.10
45435;DHT22;31183;47.404;8.500;2023-03-01T07:25:02;1.80;90.30
45435;DHT22;31183;47.404;8.500;2023-03-01T07:27:28;1.80;90.20
45435;DHT22;31183;47.404;8.500;2023-03-01T07:29:55;1.90;90.30
45435;DHT22;31183;47.404;8.500;2023-03-01T07:32:22;1.90;90.40
45435;DHT22;31183;47.404;8.500;2023-03-01T07:34:48;1.90;90.40
45435;DHT22;31183;47.404;8.500;2023-03-01T07:37:15;1.90;90.30
45435;DHT22;31183;47.404;8.500;2023-03-01T07:39:41;1.90;90.20
45435;DHT22;31183;47.404;8.500;2023-03-01T07:42:08;2.00;90.30
45435;DHT22;31183;47.404;8.500;2023-03-01T07:44:35;1.90;90.30
45435;DHT22;31183;47.404;8.500;2023-03-01T07:47:03;1.90;90.40
45435;DHT22;31183;47.404;8.500;2023-03-01T07:49:29;1.90;90.30
45435;DHT22;31183;47.404;8.500;2023-03-01T07:51:56;1.90;90.30
45435;DHT22;31183;47.404;8.500;2023-03-01T07:54:23;1.80;90.40
45435;DHT22;31183;47.404;8.500;2023-03-01T07:56:49;1.90;90.50
45435;DHT22;31183;47.404;8.500;2023-03-01T07:59:16;1.90;90.50
45435;DHT22;31183;47.404;8.500;2023-03-01T08:01:42;1.90;90.50
45435;DHT22;31183;47.404;8.500;2023-03-01T08:04:09;1.90;90.50
45435;DHT22;31183;47.404;8.500;2023-03-01T08:06:36;1.90;90.60
45435;DHT22;31183;47.404;8.500;2023-03-01T08:09:03;2.00;90.60
45435;DHT22;31183;47.404;8.500;2023-03-01T08:11:30;2.00;90.50
45435;DHT22;31183;47.404;8.500;2023-03-01T08:13:57;1.90;90.50
45435;DHT22;31183;47.404;8.500;2023-03-01T08:16:24;2.00;90.60
45435;DHT22;31183;47.404;8.500;2023-03-01T08:18:50;2.00;90.50
45435;DHT22;31183;47.404;8.500;2023-03-01T08:21:18;2.10;90.60
45435;DHT22;31183;47.404;8.500;2023-03-01T08:23:45;2.00;90.40
45435;DHT22;31183;47.404;8.500;2023-03-01T08:26:17;2.00;90.40
45435;DHT22;31183;47.404;8.500;2023-03-01T08:28:45;2.10;90.40
45435;DHT22;31183;47.404;8.500;2023-03-01T08:31:18;2.10;90.50
45435;DHT22;31183;47.404;8.500;2023-03-01T08:33:46;2.10;90.40
45435;DHT22;31183;47.404;8.500;2023-03-01T08:36:29;2.10;90.50
45435;DHT22;31183;47.404;8.500;2023-03-01T08:38:57;2.00;90.40
45435;DHT22;31183;47.404;8.500;2023-03-01T08:41:24;2.00;90.60
45435;DHT22;31183;47.404;8.500;2023-03-01T08:43:51;2.00;90.50
45435;DHT22;31183;47.404;8.500;2023-03-01T08:46:19;2.00;90.60
45435;DHT22;31183;47.404;8.500;2023-03-01T08:48:45;2.00;90.50
45435;DHT22;31183;47.404;8.500;2023-03-01T08:51:17;1.90;90.50
45435;DHT22;31183;47.404;8.500;2023-03-01T08:53:47;1.90;90.60
45435;DHT22;31183;47.404;8.500;2023-03-01T08:56:14;1.90;90.70
45435;DHT22;31183;47.404;8.500;2023-03-01T08:58:48;2.00;90.60
45435;DHT22;31183;47.404;8.500;2023-03-01T09:01:17;2.10;90.60
45435;DHT22;31183;47.404;8.500;2023-03-01T09:03:44;2.10;90.60
45435;DHT22;31183;47.404;8.500;2023-03-01T09:06:11;2.10;90.30
45435;DHT22;31183;47.404;8.500;2023-03-01T09:08:39;2.10;90.30
45435;DHT22;31183;47.404;8.500;2023-03-01T09:11:08;2.00;90.30
45435;DHT22;31183;47.404;8.500;2023-03-01T09:13:35;2.00;90.50
45435;DHT22;31183;47.404;8.500;2023-03-01T09:16:05;2.00;90.60
45435;DHT22;31183;47.404;8.500;2023-03-01T09:18:32;2.00;90.60
45435;DHT22;31183;47.404;8.500;2023-03-01T09:21:13;2.00;90.60
45435;DHT22;31183;47.404;8.500;2023-03-01T09:23:46;2.10;90.70
45435;DHT22;31183;47.404;8.500;2023-03-01T09:26:18;2.20;90.60
45435;DHT22;31183;47.404;8.500;2023-03-01T09:28:46;2.10;90.40
45435;DHT22;31183;47.404;8.500;2023-03-01T09:31:14;2.20;90.50
45435;DHT22;31183;47.404;8.500;2023-03-01T09:33:42;2.20;90.20
45435;DHT22;31183;47.404;8.500;2023-03-01T09:36:12;2.10;90.30
45435;DHT22;31183;47.404;8.500;2023-03-01T09:38:39;2.20;90.50
45435;DHT22;31183;47.404;8.500;2023-03-01T09:44:29;2.40;90.40
45435;DHT22;31183;47.404;8.500;2023-03-01T09:46:53;2.40;90.20
45435;DHT22;31183;47.404;8.500;2023-03-01T09:49:27;2.30;90.20
45435;DHT22;31183;47.404;8.500;2023-03-01T09:52:21;2.30;90.20
45435;DHT22;31183;47.404;8.500;2023-03-01T09:54:51;2.30;90.40
45435;DHT22;31183;47.404;8.500;2023-03-01T09:57:20;2.30;90.30
45435;DHT22;31183;47.404;8.500;2023-03-01T09:59:58;2.40;90.40
45435;DHT22;31183;47.404;8.500;2023-03-01T10:02:46;2.40;90.10
45435;DHT22;31183;47.404;8.500;2023-03-01T10:05:35;2.40;89.90
45435;DHT22;31183;47.404;8.500;2023-03-01T10:10:49;2.30;90.00
45435;DHT22;31183;47.404;8.500;2023-03-01T10:15:53;2.30;90.00
45435;DHT22;31183;47.404;8.500;2023-03-01T10:18:30;2.30;90.10
45435;DHT22;31183;47.404;8.500;2023-03-01T10:21:01;2.30;90.20
45435;DHT22;31183;47.404;8.500;2023-03-01T10:23:31;2.20;90.30
45435;DHT22;31183;47.404;8.500;2023-03-01T10:29:04;2.30;90.20
45435;DHT22;31183;47.404;8.500;2023-03-01T10:31:50;2.30;90.20
45435;DHT22;31183;47.404;8.500;2023-03-01T10:34:26;2.30;90.20
45435;DHT22;31183;47.404;8.500;2023-03-01T10:37:00;2.40;90.30
45435;DHT22;31183;47.404;8.500;2023-03-01T10:39:27;2.40;90.10
45435;DHT22;31183;47.404;8.500;2023-03-01T10:44:44;2.40;89.90
45435;DHT22;31183;47.404;8.500;2023-03-01T10:47:14;2.50;89.90
45435;DHT22;31183;47.404;8.500;2023-03-01T10:49:55;2.40;90.00
45435;DHT22;31183;47.404;8.500;2023-03-01T10:52:36;2.50;89.70
45435;DHT22;31183;47.404;8.500;2023-03-01T10:57:40;2.50;89.90
45435;DHT22;31183;47.404;8.500;2023-03-01T11:05:24;2.50;89.70
45435;DHT22;31183;47.404;8.500;2023-03-01T11:07:56;2.50;89.90
45435;DHT22;31183;47.404;8.500;2023-03-01T11:10:32;2.50;89.80
45435;DHT22;31183;47.404;8.500;2023-03-01T11:13:19;2.50;89.80
45435;DHT22;31183;47.404;8.500;2023-03-01T11:16:05;2.50;89.60
45435;DHT22;31183;47.404;8.500;2023-03-01T11:18:32;2.50;89.80
45435;DHT22;31183;47.404;8.500;2023-03-01T11:21:13;2.50;89.80
45435;DHT22;31183;47.404;8.500;2023-03-01T11:23:43;2.50;89.70
45435;DHT22;31183;47.404;8.500;2023-03-01T11:26:13;2.50;89.80
45435;DHT22;31183;47.404;8.500;2023-03-01T11:28:42;2.40;89.40
45435;DHT22;31183;47.404;8.500;2023-03-01T11:31:11;2.40;89.90
45435;DHT22;31183;47.404;8.500;2023-03-01T11:33:59;2.40;90.00
45435;DHT22;31183;47.404;8.500;2023-03-01T11:41:49;2.50;89.50
45435;DHT22;31183;47.404;8.500;2023-03-01T11:44:26;2.50;89.20
45435;DHT22;31183;47.404;8.500;2023-03-01T11:54:53;2.60;89.30
45435;DHT22;31183;47.404;8.500;2023-03-01T11:58:00;2.60;89.70
45435;DHT22;31183;47.404;8.500;2023-03-01T12:03:36;2.60;88.70
45435;DHT22;31183;47.404;8.500;2023-03-01T12:06:29;2.60;88.40
45435;DHT22;31183;47.404;8.500;2023-03-01T12:09:17;2.60;88.30
45435;DHT22;31183;47.404;8.500;2023-03-01T12:14:55;2.60;88.60
45435;DHT22;31183;47.404;8.500;2023-03-01T12:17:51;2.70;88.40
45435;DHT22;31183;47.404;8.500;2023-03-01T12:23:42;2.70;88.30
45435;DHT22;31183;47.404;8.500;2023-03-01T12:50:37;2.80;87.90
45435;DHT22;31183;47.404;8.500;2023-03-01T12:53:22;2.80;88.00
45435;DHT22;31183;47.404;8.500;2023-03-01T12:55:49;2.80;87.80
45435;DHT22;31183;47.404;8.500;2023-03-01T13:04:30;2.70;88.90
45435;DHT22;31183;47.404;8.500;2023-03-01T13:15:31;2.70;88.70
45435;DHT22;31183;47.404;8.500;2023-03-01T13:18:49;2.70;88.50
45435;DHT22;31183;47.404;8.500;2023-03-01T13:20:59;2.80;88.40
45435;DHT22;31183;47.404;8.500;2023-03-01T13:23:37;2.80;87.90
45435;DHT22;31183;47.404;8.500;2023-03-01T13:26:16;2.80;87.80
45435;DHT22;31183;47.404;8.500;2023-03-01T13:28:51;2.70;87.60
45435;DHT22;31183;47.404;8.500;2023-03-01T13:33:55;2.70;87.60
45435;DHT22;31183;47.404;8.500;2023-03-01T13:38:59;2.70;87.30
45435;DHT22;31183;47.404;8.500;2023-03-01T13:47:05;2.80;87.10
45435;DHT22;31183;47.404;8.500;2023-03-01T13:49:52;2.80;87.30
45435;DHT22;31183;47.404;8.500;2023-03-01T13:54:59;2.80;87.20
45435;DHT22;31183;47.404;8.500;2023-03-01T13:57:33;2.80;86.80
45435;DHT22;31183;47.404;8.500;2023-03-01T14:00:00;2.80;87.20
45435;DHT22;31183;47.404;8.500;2023-03-01T14:02:27;2.80;87.00
45435;DHT22;31183;47.404;8.500;2023-03-01T14:05:01;2.80;87.00
45435;DHT22;31183;47.404;8.500;2023-03-01T14:07:28;2.90;87.10
45435;DHT22;31183;47.404;8.500;2023-03-01T14:10:05;2.80;86.50
45435;DHT22;31183;47.404;8.500;2023-03-01T14:12:54;2.70;86.80
45435;DHT22;31183;47.404;8.500;2023-03-01T14:15:55;2.60;87.20
45435;DHT22;31183;47.404;8.500;2023-03-01T14:18:39;2.60;87.10
45435;DHT22;31183;47.404;8.500;2023-03-01T14:21:08;2.60;86.90
45435;DHT22;31183;47.404;8.500;2023-03-01T14:23:34;2.50;87.00
45435;DHT22;31183;47.404;8.500;2023-03-01T14:26:04;2.60;87.30
45435;DHT22;31183;47.404;8.500;2023-03-01T14:28:32;2.60;86.80
45435;DHT22;31183;47.404;8.500;2023-03-01T14:31:01;2.60;86.90
45435;DHT22;31183;47.404;8.500;2023-03-01T14:33:30;2.60;86.90
45435;DHT22;31183;47.404;8.500;2023-03-01T14:38:37;2.70;87.30
45435;DHT22;31183;47.404;8.500;2023-03-01T14:41:18;2.80;86.80
45435;DHT22;31183;47.404;8.500;2023-03-01T14:43:58;2.80;87.00
45435;DHT22;31183;47.404;8.500;2023-03-01T14:46:32;2.90;86.80
45435;DHT22;31183;47.404;8.500;2023-03-01T14:49:06;2.90;86.80
45435;DHT22;31183;47.404;8.500;2023-03-01T14:51:40;2.90;86.50
45435;DHT22;31183;47.404;8.500;2023-03-01T14:54:24;2.90;86.60
45435;DHT22;31183;47.404;8.500;2023-03-01T14:56:53;2.80;86.40
45435;DHT22;31183;47.404;8.500;2023-03-01T14:59:22;2.80;86.90
45435;DHT22;31183;47.404;8.500;2023-03-01T15:01:51;2.80;86.60
45435;DHT22;31183;47.404;8.500;2023-03-01T15:04:18;2.80;86.30
45435;DHT22;31183;47.404;8.500;2023-03-01T15:06:47;2.80;85.70
45435;DHT22;31183;47.404;8.500;2023-03-01T15:09:15;2.70;85.50
45435;DHT22;31183;47.404;8.500;2023-03-01T15:11:43;2.70;85.80
45435;DHT22;31183;47.404;8.500;2023-03-01T15:14:42;2.70;86.10
45435;DHT22;31183;47.404;8.500;2023-03-01T15:17:37;2.70;85.80
45435;DHT22;31183;47.404;8.500;2023-03-01T15:20:14;2.60;85.70
45435;DHT22;31183;47.404;8.500;2023-03-01T15:22:46;2.50;85.90
45435;DHT22;31183;47.404;8.500;2023-03-01T15:25:17;2.50;86.60
45435;DHT22;31183;47.404;8.500;2023-03-01T15:27:49;2.60;86.80
45435;DHT22;31183;47.404;8.500;2023-03-01T15:30:25;2.60;86.50
45435;DHT22;31183;47.404;8.500;2023-03-01T15:33:15;2.70;85.90
45435;DHT22;31183;47.404;8.500;2023-03-01T15:35:48;2.70;86.00
45435;DHT22;31183;47.404;8.500;2023-03-01T15:38:25;2.70;85.60
45435;DHT22;31183;47.404;8.500;2023-03-01T15:40:53;2.70;85.70
45435;DHT22;31183;47.404;8.500;2023-03-01T15:43:44;2.70;85.80
45435;DHT22;31183;47.404;8.500;2023-03-01T15:46:30;2.70;85.70
45435;DHT22;31183;47.404;8.500;2023-03-01T15:49:02;2.70;86.30
45435;DHT22;31183;47.404;8.500;2023-03-01T15:53:59;2.70;86.00
45435;DHT22;31183;47.404;8.500;2023-03-01T15:56:26;2.70;85.50
45435;DHT22;31183;47.404;8.500;2023-03-01T15:58:57;2.60;85.50
45435;DHT22;31183;47.404;8.500;2023-03-01T16:01:24;2.60;85.70
45435;DHT22;31183;47.404;8.500;2023-03-01T16:03:51;2.60;85.60
45435;DHT22;31183;47.404;8.500;2023-03-01T16:06:18;2.60;85.50
45435;DHT22;31183;47.404;8.500;2023-03-01T16:08:44;2.50;85.70
45435;DHT22;31183;47.404;8.500;2023-03-01T16:11:15;2.50;85.60
45435;DHT22;31183;47.404;8.500;2023-03-01T16:13:42;2.50;85.70
45435;DHT22;31183;47.404;8.500;2023-03-01T16:16:14;2.60;86.40
45435;DHT22;31183;47.404;8.500;2023-03-01T16:18:44;2.60;86.00
45435;DHT22;31183;47.404;8.500;2023-03-01T16:21:22;2.50;85.50
45435;DHT22;31183;47.404;8.500;2023-03-01T16:23:50;2.50;85.80
45435;DHT22;31183;47.404;8.500;2023-03-01T16:26:18;2.50;86.10
45435;DHT22;31183;47.404;8.500;2023-03-01T16:28:47;2.50;85.90
45435;DHT22;31183;47.404;8.500;2023-03-01T16:31:18;2.50;86.00
45435;DHT22;31183;47.404;8.500;2023-03-01T16:33:45;2.50;85.90
45435;DHT22;31183;47.404;8.500;2023-03-01T16:36:17;2.60;86.20
45435;DHT22;31183;47.404;8.500;2023-03-01T16:38:44;2.60;86.10
45435;DHT22;31183;47.404;8.500;2023-03-01T16:41:13;2.70;85.90
45435;DHT22;31183;47.404;8.500;2023-03-01T16:43:41;2.70;85.70
45435;DHT22;31183;47.404;8.500;2023-03-01T16:46:13;2.70;86.00
45435;DHT22;31183;47.404;8.500;2023-03-01T16:48:40;2.70;86.20
45435;DHT22;31183;47.404;8.500;2023-03-01T16:51:08;2.70;85.50
45435;DHT22;31183;47.404;8.500;2023-03-01T16:53:36;2.70;85.50
45435;DHT22;31183;47.404;8.500;2023-03-01T16:56:06;2.70;85.20
45435;DHT22;31183;47.404;8.500;2023-03-01T16:58:35;2.70;85.70
45435;DHT22;31183;47.404;8.500;2023-03-01T17:01:13;2.70;85.40
45435;DHT22;31183;47.404;8.500;2023-03-01T17:03:40;2.70;86.00
45435;DHT22;31183;47.404;8.500;2023-03-01T17:06:10;2.70;85.80
45435;DHT22;31183;47.404;8.500;2023-03-01T17:08:38;2.70;86.00
45435;DHT22;31183;47.404;8.500;2023-03-01T17:11:10;2.70;85.50
45435;DHT22;31183;47.404;8.500;2023-03-01T17:13:37;2.70;85.50
45435;DHT22;31183;47.404;8.500;2023-03-01T17:16:06;2.60;85.60
45435;DHT22;31183;47.404;8.500;2023-03-01T17:18:33;2.60;86.20
45435;DHT22;31183;47.404;8.500;2023-03-01T17:21:00;2.60;86.30
45435;DHT22;31183;47.404;8.500;2023-03-01T17:23:28;2.70;86.30
45435;DHT22;31183;47.404;8.500;2023-03-01T17:25:56;2.70;86.00
45435;DHT22;31183;47.404;8.500;2023-03-01T17:28:24;2.70;85.80
45435;DHT22;31183;47.404;8.500;2023-03-01T17:30:51;2.70;86.10
45435;DHT22;31183;47.404;8.500;2023-03-01T17:33:19;2.70;86.40
45435;DHT22;31183;47.404;8.500;2023-03-01T17:35:47;2.70;86.20
45435;DHT22;31183;47.404;8.500;2023-03-01T17:38:14;2.70;86.00
45435;DHT22;31183;47.404;8.500;2023-03-01T17:40:41;2.80;86.20
45435;DHT22;31183;47.404;8.500;2023-03-01T17:43:09;2.80;86.10
45435;DHT22;31183;47.404;8.500;2023-03-01T17:45:36;2.80;86.10
45435;DHT22;31183;47.404;8.500;2023-03-01T17:48:04;2.80;85.90
45435;DHT22;31183;47.404;8.500;2023-03-01T17:50:31;2.80;86.00
45435;DHT22;31183;47.404;8.500;2023-03-01T17:52:58;2.80;86.10
45435;DHT22;31183;47.404;8.500;2023-03-01T17:55:27;2.80;86.40
45435;DHT22;31183;47.404;8.500;2023-03-01T17:57:54;2.70;85.90
45435;DHT22;31183;47.404;8.500;2023-03-01T18:00:20;2.70;86.30
45435;DHT22;31183;47.404;8.500;2023-03-01T18:02:47;2.80;86.40
45435;DHT22;31183;47.404;8.500;2023-03-01T18:05:14;2.80;86.40